Time;durP1;ratioP1;P1;durP2;ratioP2;P2;SDS_P1;SDS_P2;PMS_P1;PMS_P2;Temp;Humidity;BMP_temperature;BMP_pressure;BME280_temperature;BME280_humidity;BME280_pressure;Samples;Min_cycle;Max_cycle;Signal;HPM_P1;HPM_P2
2022/01/28 00:01:34;;;;;;;16.43;7.13;;;;;;;8.77;97.79;102236.63;4862459;29;20462;-87
2022/01/28 00:04:13;;;;;;;14.40;6.50;;;;;;;8.72;97.79;102234.31;4865761;29;20911;-88
2022/01/28 00:06:43;;;;;;;19.37;7.20;;;;;;;8.70;97.18;102239.06;4880103;29;20589;-87
2022/01/28 00:09:14;;;;;;;19.27;7.83;;;;;;;8.64;97.07;102228.75;4880923;29;20478;-88
2022/01/28 00:11:47;;;;;;;27.90;9.50;;;;;;;8.61;97.47;102238.09;4865717;29;20458;-88
2022/01/28 00:14:31;;;;;;;29.23;9.87;;;;;;;8.52;97.59;102224.44;4864890;29;20453;-87
2022/01/28 00:17:46;;;;;;;20.87;8.93;;;;;;;8.51;98.95;102229.03;4880605;29;20942;-87
2022/01/28 00:39:50;;;;;;;20.20;9.37;;;;;;;8.38;98.67;102225.75;4830818;29;20457;-87
2022/01/28 00:42:19;;;;;;;16.90;9.00;;;;;;;8.37;98.39;102225.88;4864537;29;20566;-87
2022/01/28 00:44:49;;;;;;;19.33;7.63;;;;;;;8.40;98.39;102225.59;4894939;29;20459;-87
2022/01/28 00:47:17;;;;;;;20.53;8.13;;;;;;;8.38;98.55;102223.03;4879167;29;20496;-87
2022/01/28 00:49:48;;;;;;;17.00;8.70;;;;;;;8.30;98.66;102211.94;4849261;29;20486;-86
2022/01/28 00:52:18;;;;;;;23.40;10.20;;;;;;;8.39;98.66;102219.28;4879728;29;20454;-86
2022/01/28 00:54:46;;;;;;;27.23;12.67;;;;;;;8.41;98.72;102210.97;4879627;29;20853;-87
2022/01/28 00:57:17;;;;;;;24.70;10.20;;;;;;;8.40;98.49;102212.84;4864989;29;20447;-87
2022/01/28 00:59:45;;;;;;;17.30;8.73;;;;;;;8.37;98.20;102206.81;4860632;29;20446;-87
2022/01/28 01:02:13;;;;;;;13.07;7.17;;;;;;;8.33;97.86;102214.41;4860929;29;20459;-86
2022/01/28 01:04:43;;;;;;;21.57;7.70;;;;;;;8.30;98.08;102211.94;4863666;29;20443;-87
2022/01/28 01:07:14;;;;;;;22.60;7.87;;;;;;;8.27;97.58;102213.06;4879275;29;20478;-86
2022/01/28 01:09:43;;;;;;;12.87;6.47;;;;;;;8.25;97.94;102211.53;4879733;29;20446;-87
2022/01/28 01:12:17;;;;;;;19.67;7.63;;;;;;;8.25;98.26;102209.66;4864532;29;20525;-86
2022/01/28 01:14:47;;;;;;;12.83;5.93;;;;;;;8.23;98.06;102218.97;4865331;29;20458;-87
2022/01/28 01:17:33;;;;;;;14.93;6.83;;;;;;;8.24;97.44;102213.38;4864430;29;20459;-87
2022/01/28 01:23:10;;;;;;;20.20;6.47;;;;;;;8.07;97.60;102186.88;4811003;29;20449;-87
2022/01/28 01:25:48;;;;;;;17.07;7.07;;;;;;;8.18;97.66;102213.94;4790108;29;20935;-87
2022/01/28 01:28:19;;;;;;;10.60;6.40;;;;;;;8.14;97.72;102209.78;4790387;29;20795;-87
2022/01/28 01:30:48;;;;;;;14.80;6.93;;;;;;;8.15;97.67;102206.06;4789723;29;20443;-87
2022/01/28 01:33:18;;;;;;;18.30;7.87;;;;;;;8.11;97.93;102204.63;4791624;29;20557;-87
2022/01/28 01:35:55;;;;;;;15.30;7.10;;;;;;;8.03;98.08;102199.03;4778524;29;20487;-87
2022/01/28 01:38:27;;;;;;;14.17;7.50;;;;;;;8.06;98.59;102201.47;4808059;29;20488;-87
2022/01/28 01:40:58;;;;;;;17.53;7.57;;;;;;;8.13;98.56;102202.63;4807858;29;20817;-86
2022/01/28 01:46:08;;;;;;;16.77;7.00;;;;;;;8.14;98.70;102207.06;4790035;29;20557;-87
2022/01/28 01:54:11;;;;;;;10.37;5.40;;;;;;;8.01;97.88;102192.88;4755761;30;20472;-86
2022/01/28 01:56:39;;;;;;;12.37;5.90;;;;;;;8.01;98.12;102198.31;4765785;30;20565;-87
2022/01/28 01:59:11;;;;;;;17.03;5.80;;;;;;;8.02;98.06;102199.19;4744842;29;20472;-87
2022/01/28 02:01:39;;;;;;;18.53;5.77;;;;;;;7.98;98.14;102195.88;4789161;29;20547;-86
2022/01/28 02:04:06;;;;;;;14.90;6.63;;;;;;;7.96;97.77;102203.31;4781414;29;20498;-87
2022/01/28 02:06:37;;;;;;;37.97;13.20;;;;;;;7.92;97.50;102202.72;4757730;29;20986;-87
2022/01/28 02:09:07;;;;;;;14.90;6.70;;;;;;;7.91;97.66;102208.31;4813526;29;20482;-87
2022/01/28 02:11:41;;;;;;;17.37;5.47;;;;;;;7.87;97.41;102201.44;4863423;29;20894;-87
2022/01/28 02:14:10;;;;;;;10.03;4.30;;;;;;;7.82;98.00;102199.16;4893695;29;20483;-87
2022/01/28 02:16:39;;;;;;;8.63;3.40;;;;;;;7.79;98.11;102202.16;4863403;29;20451;-87
2022/01/28 02:19:08;;;;;;;9.37;4.20;;;;;;;7.75;97.65;102208.00;4863136;29;20518;-87
2022/01/28 02:21:43;;;;;;;11.63;5.53;;;;;;;7.74;97.66;102211.72;4845146;29;20882;-86
2022/01/28 02:24:17;;;;;;;12.13;4.53;;;;;;;7.66;98.09;102203.41;4877764;29;20474;-87
2022/01/28 02:26:46;;;;;;;9.13;3.43;;;;;;;7.65;98.06;102201.69;4879176;29;20585;-87
2022/01/28 02:29:25;;;;;;;10.23;4.87;;;;;;;7.66;98.00;102214.28;4878773;29;20549;-87
2022/01/28 02:31:57;;;;;;;15.23;7.17;;;;;;;7.67;98.25;102197.81;4851058;29;20961;-87
2022/01/28 02:34:26;;;;;;;15.23;5.67;;;;;;;7.59;98.17;102193.06;4862856;29;21017;-87
2022/01/28 02:36:55;;;;;;;12.40;4.20;;;;;;;7.67;98.23;102199.69;4863579;29;20439;-87
2022/01/28 02:39:23;;;;;;;16.13;3.90;;;;;;;7.70;98.50;102210.31;4878972;29;20522;-86
2022/01/28 02:41:59;;;;;;;14.30;5.93;;;;;;;7.66;98.66;102203.41;4863008;29;20459;-87
2022/01/28 02:47:11;;;;;;;10.30;5.00;;;;;;;7.62;98.38;102198.25;4864368;29;21019;-87
2022/01/28 02:49:43;;;;;;;8.53;4.70;;;;;;;7.59;98.94;102197.66;4878352;29;20442;-87
2022/01/28 02:52:21;;;;;;;9.90;5.43;;;;;;;7.59;99.06;102198.50;4879002;29;20848;-87
2022/01/28 02:54:50;;;;;;;7.50;4.30;;;;;;;7.52;98.76;102191.03;4876281;29;20530;-86
2022/01/28 02:57:24;;;;;;;7.40;4.00;;;;;;;7.55;99.11;102191.63;4850934;29;20455;-86
2022/01/28 02:59:54;;;;;;;16.40;5.10;;;;;;;7.54;98.83;102194.47;4878666;29;20476;-87
2022/01/28 03:02:22;;;;;;;8.57;4.00;;;;;;;7.51;99.34;102184.72;4863350;29;20502;-87
2022/01/28 03:14:47;;;;;;;9.10;4.37;;;;;;;7.37;99.17;102193.28;4841732;29;20463;-88
2022/01/28 03:17:55;;;;;;;7.30;4.63;;;;;;;7.31;99.51;102177.53;4835463;29;20448;-88
2022/01/28 03:20:35;;;;;;;6.40;3.57;;;;;;;7.49;99.63;102185.91;4831497;29;20475;-87
2022/01/28 03:23:03;;;;;;;22.00;4.50;;;;;;;7.48;99.58;102186.88;4819134;29;20491;-87
2022/01/28 03:25:34;;;;;;;4.70;3.10;;;;;;;7.48;99.35;102190.47;4798820;29;20493;-88
2022/01/28 03:28:08;;;;;;;6.80;3.37;;;;;;;7.41;98.72;102188.44;4794028;29;20498;-87
2022/01/28 03:30:36;;;;;;;9.40;3.20;;;;;;;7.36;98.37;102196.13;4807979;29;20473;-88
2022/01/28 03:33:07;;;;;;;12.63;3.87;;;;;;;7.34;99.42;102192.69;4793368;29;20446;-87
2022/01/28 03:35:36;;;;;;;7.53;2.80;;;;;;;7.34;99.48;102188.09;4808186;29;20557;-87
2022/01/28 03:38:07;;;;;;;9.63;3.07;;;;;;;7.36;98.86;102190.69;4792115;29;20458;-87
2022/01/28 03:40:39;;;;;;;6.73;3.27;;;;;;;7.33;98.79;102191.81;4791862;29;20450;-87
2022/01/28 03:43:07;;;;;;;13.13;3.90;;;;;;;7.33;99.40;102190.97;4791800;29;20450;-87
2022/01/28 03:45:44;;;;;;;7.57;3.10;;;;;;;7.31;98.85;102188.41;4861929;29;20470;-87
2022/01/28 03:48:14;;;;;;;10.83;3.80;;;;;;;7.27;99.04;102186.97;4896700;29;20844;-87
2022/01/28 03:50:45;;;;;;;7.53;3.10;;;;;;;7.27;98.80;102186.97;4880488;29;20443;-87
2022/01/28 03:53:18;;;;;;;8.90;3.00;;;;;;;7.27;98.72;102187.81;4896133;29;20541;-88
2022/01/28 03:55:56;;;;;;;5.87;2.63;;;;;;;7.25;99.20;102188.94;4895719;29;20454;-87
2022/01/28 03:58:24;;;;;;;16.37;4.30;;;;;;;7.24;99.19;102189.94;4881043;29;20485;-87
2022/01/28 04:00:56;;;;;;;4.63;2.53;;;;;;;7.22;99.28;102189.22;4865482;29;20458;-87
2022/01/28 04:11:31;;;;;;;9.13;2.67;;;;;;;7.05;98.31;102187.13;4862159;29;20872;-87
2022/01/28 04:14:16;;;;;;;5.43;2.53;;;;;;;6.97;98.92;102178.78;4850891;29;20458;-87
2022/01/28 04:19:35;;;;;;;7.57;2.73;;;;;;;6.97;98.04;102184.22;4849659;29;20452;-87
2022/01/28 04:22:03;;;;;;;11.17;3.13;;;;;;;6.93;98.15;102189.91;4848071;29;20436;-88
2022/01/28 04:24:31;;;;;;;4.67;2.53;;;;;;;6.88;98.58;102186.75;4861062;29;20460;-87
2022/01/28 04:26:59;;;;;;;6.43;3.20;;;;;;;6.93;98.34;102189.91;4861804;29;20513;-87
2022/01/28 04:29:28;;;;;;;3.57;2.67;;;;;;;6.92;98.73;102187.38;4861192;29;20452;-87
2022/01/28 04:31:58;;;;;;;13.07;3.07;;;;;;;6.82;98.79;102171.00;4861226;29;20510;-86
2022/01/28 04:34:27;;;;;;;8.10;3.53;;;;;;;6.92;98.52;102193.66;4878962;29;21085;-88
2022/01/28 04:37:14;;;;;;;9.90;3.80;;;;;;;6.88;98.66;102186.75;4870926;29;20529;-89
2022/01/28 04:47:37;;;;;;;6.53;2.37;;;;;;;6.58;97.35;102194.84;4880124;29;20897;-87
2022/01/28 04:53:00;;;;;;;6.60;2.30;;;;;;;6.56;99.04;102191.41;4865257;29;20465;-87
2022/01/28 04:55:48;;;;;;;10.73;3.20;;;;;;;6.59;99.07;102196.56;4865944;29;20460;-88
2022/01/28 05:17:07;;;;;;;11.60;3.07;;;;;;;6.51;97.38;102201.81;4879319;29;20550;-87
2022/01/28 05:27:39;;;;;;;12.03;2.83;;;;;;;6.31;97.89;102181.81;4864718;29;20479;-87
2022/01/28 05:30:08;;;;;;;4.30;2.53;;;;;;;6.33;97.14;102200.69;4867290;29;20514;-87
2022/01/28 05:32:42;;;;;;;7.00;2.57;;;;;;;6.22;96.71;102210.59;4863671;29;20492;-87
2022/01/28 05:35:12;;;;;;;6.33;2.60;;;;;;;6.14;97.76;102202.25;4859417;29;20451;-87
2022/01/28 05:37:42;;;;;;;7.70;2.30;;;;;;;6.09;98.01;102203.59;4845160;29;20496;-87
2022/01/28 05:40:10;;;;;;;5.97;2.23;;;;;;;6.09;98.47;102212.63;4863350;29;20950;-87
2022/01/28 05:42:47;;;;;;;15.23;3.00;;;;;;;6.11;98.94;102207.94;4863962;29;20445;-87
2022/01/28 05:45:18;;;;;;;9.80;2.97;;;;;;;6.09;98.84;102196.34;4878291;29;20458;-87
2022/01/28 05:47:47;;;;;;;7.87;2.70;;;;;;;6.19;98.52;102209.97;4878911;29;20487;-87
2022/01/28 05:50:16;;;;;;;10.37;3.30;;;;;;;6.15;98.20;102203.97;4848205;29;20450;-87
2022/01/28 05:52:46;;;;;;;16.80;3.00;;;;;;;6.14;98.77;102202.25;4863722;29;20473;-87
2022/01/28 05:55:18;;;;;;;11.20;3.57;;;;;;;6.20;98.39;102204.41;4856601;29;20875;-87
2022/01/28 05:57:51;;;;;;;5.50;2.17;;;;;;;6.21;98.35;102205.28;4880164;29;20431;-86
2022/01/28 06:00:22;;;;;;;7.80;2.60;;;;;;;6.20;97.73;102212.56;4878580;29;20475;-87
2022/01/28 06:02:51;;;;;;;13.07;2.90;;;;;;;6.16;97.50;102211.09;4876414;29;20474;-88
2022/01/28 06:05:23;;;;;;;6.80;2.60;;;;;;;6.13;98.15;102222.22;4893080;29;20447;-87
2022/01/28 06:07:50;;;;;;;17.70;2.60;;;;;;;6.10;98.04;102206.19;4863198;29;20486;-87
2022/01/28 06:10:19;;;;;;;7.47;2.70;;;;;;;6.09;98.11;102215.34;4863120;29;20462;-86
2022/01/28 06:12:48;;;;;;;5.60;2.33;;;;;;;6.08;98.05;102213.59;4877945;29;20503;-87
2022/01/28 06:15:16;;;;;;;16.40;3.43;;;;;;;6.09;97.48;102215.34;4858943;29;20954;-87
2022/01/28 06:17:44;;;;;;;8.40;2.73;;;;;;;6.07;97.75;102211.88;4859829;29;20826;-87
2022/01/28 06:20:19;;;;;;;13.60;2.87;;;;;;;6.04;97.71;102212.13;4863299;29;20819;-86
2022/01/28 06:22:50;;;;;;;10.87;3.00;;;;;;;6.08;97.82;102213.59;4879192;29;20450;-87
2022/01/28 06:25:18;;;;;;;8.90;3.00;;;;;;;6.05;98.15;102207.56;4862492;29;21021;-87
2022/01/28 06:27:48;;;;;;;19.20;2.90;;;;;;;5.98;97.78;102196.34;4859494;29;20510;-86
2022/01/28 06:30:17;;;;;;;5.83;2.27;;;;;;;5.96;97.47;102211.94;4857919;29;20889;-87
2022/01/28 06:32:47;;;;;;;11.90;3.00;;;;;;;6.05;97.36;102219.28;4863310;29;20479;-87
2022/01/28 06:35:16;;;;;;;9.57;3.03;;;;;;;6.02;97.45;102219.53;4878922;29;20990;-87
2022/01/28 06:37:46;;;;;;;4.93;2.70;;;;;;;6.00;97.33;102231.50;4856224;29;20454;-87
2022/01/28 06:40:17;;;;;;;9.97;3.07;;;;;;;5.95;97.21;102229.19;4877899;29;20486;-87
2022/01/28 06:42:47;;;;;;;7.37;2.17;;;;;;;5.93;96.67;102233.88;4879101;29;20450;-87
2022/01/28 06:45:22;;;;;;;8.00;2.60;;;;;;;5.91;97.06;102238.56;4878111;29;21138;-87
2022/01/28 06:47:52;;;;;;;4.97;2.70;;;;;;;5.91;97.12;102243.13;4859233;29;20490;-87
2022/01/28 06:50:21;;;;;;;5.03;2.87;;;;;;;5.89;97.05;102252.25;4871784;29;20447;-87
2022/01/28 06:52:50;;;;;;;6.57;2.80;;;;;;;5.87;97.37;102256.91;4862860;29;20867;-87
2022/01/28 06:55:20;;;;;;;7.23;3.07;;;;;;;5.84;97.26;102259.88;4848694;29;20962;-87
2022/01/28 06:57:49;;;;;;;12.67;2.50;;;;;;;5.80;97.56;102247.53;4847675;29;20470;-88
2022/01/28 07:00:20;;;;;;;6.03;2.27;;;;;;;5.78;97.33;102251.38;4863336;29;20466;-87
2022/01/28 07:02:50;;;;;;;2.40;1.90;;;;;;;5.81;97.88;102253.84;4863890;29;20472;-88
2022/01/28 07:05:18;;;;;;;6.53;3.10;;;;;;;5.85;97.58;102261.59;4848106;29;20447;-88
2022/01/28 07:07:47;;;;;;;5.53;2.60;;;;;;;5.87;97.59;102264.19;4847688;29;20574;-88
2022/01/28 07:10:18;;;;;;;6.03;2.23;;;;;;;5.85;97.68;102256.19;4863038;29;21042;-87
2022/01/28 07:12:56;;;;;;;9.93;3.20;;;;;;;5.86;97.87;102257.03;4883463;29;21013;-87
2022/01/28 07:15:26;;;;;;;8.03;3.00;;;;;;;5.82;97.70;102251.00;4866905;29;20791;-87
2022/01/28 07:18:02;;;;;;;12.23;3.20;;;;;;;5.87;98.34;102259.63;4882649;29;20473;-87
2022/01/28 07:20:33;;;;;;;9.30;3.30;;;;;;;5.88;99.03;102263.19;4882025;29;20957;-87
2022/01/28 07:23:03;;;;;;;10.07;3.57;;;;;;;5.89;98.71;102267.69;4880872;29;20529;-87
2022/01/28 07:25:31;;;;;;;15.23;2.90;;;;;;;5.90;98.22;102263.97;4895893;29;20461;-87
2022/01/28 07:27:59;;;;;;;21.13;4.17;;;;;;;5.91;98.17;102265.69;4865522;29;20490;-87
2022/01/28 07:30:28;;;;;;;16.33;3.60;;;;;;;5.89;97.83;102275.81;4866378;29;20988;-88
2022/01/28 07:32:58;;;;;;;15.13;3.70;;;;;;;5.82;98.33;102288.13;4865548;29;20447;-88
2022/01/28 07:35:27;;;;;;;7.30;3.60;;;;;;;5.78;98.15;102276.66;4866407;29;20458;-88
2022/01/28 07:37:57;;;;;;;22.60;5.23;;;;;;;5.80;98.42;102279.22;4850729;29;20490;-87
2022/01/28 07:40:26;;;;;;;11.07;3.90;;;;;;;5.76;98.39;102269.66;4881416;29;20502;-87
2022/01/28 07:43:00;;;;;;;8.60;2.77;;;;;;;5.77;98.49;102282.22;4867086;29;20466;-87
2022/01/28 07:45:31;;;;;;;7.03;2.87;;;;;;;5.76;98.67;102285.94;4897752;29;20536;-87
2022/01/28 07:48:04;;;;;;;9.03;3.70;;;;;;;5.75;98.01;102293.19;4897523;29;20500;-88
2022/01/28 07:50:34;;;;;;;9.73;4.20;;;;;;;5.76;98.40;102285.94;4886214;29;20519;-85
2022/01/28 07:53:03;;;;;;;8.03;3.27;;;;;;;5.77;98.34;102285.78;4881957;29;20506;-88
2022/01/28 07:55:34;;;;;;;25.63;4.67;;;;;;;5.77;98.73;102274.09;4881157;29;20450;-87
2022/01/28 07:58:04;;;;;;;15.30;4.40;;;;;;;5.79;98.94;102288.34;4879607;29;20485;-88
2022/01/28 08:00:42;;;;;;;21.70;5.83;;;;;;;5.82;98.58;102296.25;4893381;29;20465;-87
2022/01/28 08:03:12;;;;;;;25.13;4.67;;;;;;;5.84;98.62;102291.56;4896985;29;20501;-87
2022/01/28 08:05:42;;;;;;;13.17;4.10;;;;;;;5.85;98.28;102296.00;4881661;29;20470;-87
2022/01/28 08:08:12;;;;;;;12.33;5.63;;;;;;;5.90;98.60;102304.69;4897137;29;20999;-88
2022/01/28 09:20:46;;;;;;;17.07;2.93;;;;;;;9.29;100.00;102333.41;4913440;23;20569;-88
2022/01/28 09:23:14;;;;;;;6.27;2.50;;;;;;;9.55;100.00;102334.50;4897785;29;20883;-87
2022/01/28 09:25:42;;;;;;;9.47;2.37;;;;;;;9.81;99.63;102339.31;4867393;29;20510;-87
2022/01/28 09:28:52;;;;;;;10.20;2.60;;;;;;;10.07;98.95;102340.34;4897107;29;20490;-93
2022/01/28 09:31:35;;;;;;;17.77;3.10;;;;;;;10.29;98.85;102336.38;4887987;29;20458;-94
2022/01/28 09:34:03;;;;;;;8.67;2.80;;;;;;;10.33;97.43;102313.19;4884305;29;20936;-88
2022/01/28 09:36:32;;;;;;;7.43;1.77;;;;;;;10.56;96.78;102321.81;4883431;29;20483;-91
2022/01/28 09:39:02;;;;;;;6.27;2.27;;;;;;;10.69;95.31;102325.88;4901068;29;20449;-89
2022/01/28 09:41:30;;;;;;;12.80;2.60;;;;;;;10.80;94.44;102323.91;4901274;29;20528;-91
2022/01/28 09:47:47;;;;;;;8.43;2.60;;;;;;;11.12;92.70;102326.09;4916689;29;20512;-89
2022/01/28 09:50:16;;;;;;;12.40;3.00;;;;;;;11.32;92.07;102325.75;4876082;29;20454;-90
2022/01/28 09:52:50;;;;;;;7.33;2.00;;;;;;;11.45;91.47;102333.53;4882176;29;20489;-90
2022/01/28 09:55:19;;;;;;;6.03;2.13;;;;;;;11.61;90.50;102341.84;4895980;29;20460;-91
2022/01/28 09:58:00;;;;;;;7.10;1.93;;;;;;;11.75;89.27;102354.06;4867853;29;20497;-90
2022/01/28 10:00:57;;;;;;;7.57;1.87;;;;;;;11.88;89.59;102345.47;4866506;29;20828;-91
2022/01/28 10:03:35;;;;;;;13.50;2.60;;;;;;;12.00;89.14;102344.16;4882787;29;20457;-92
2022/01/28 10:06:37;;;;;;;6.30;2.00;;;;;;;12.15;88.88;102341.63;4883292;29;20536;-91
2022/01/28 10:09:23;;;;;;;5.57;2.20;;;;;;;12.24;88.45;102340.66;4910942;29;20492;-91
2022/01/28 10:11:56;;;;;;;11.10;1.80;;;;;;;12.40;87.84;102340.72;4880628;29;20502;-91
2022/01/28 10:14:28;;;;;;;13.23;2.43;;;;;;;12.53;86.77;102342.97;4867007;29;20484;-92
2022/01/28 10:17:49;;;;;;;9.67;2.13;;;;;;;12.64;85.27;102337.19;4882100;29;20449;-92
2022/01/28 10:20:17;;;;;;;7.80;1.70;;;;;;;12.74;84.44;102340.63;4855798;29;20474;-92
2022/01/28 10:23:04;;;;;;;6.90;1.73;;;;;;;12.88;84.00;102339.97;4866104;29;20482;-91
2022/01/28 10:25:41;;;;;;;5.60;2.10;;;;;;;12.92;83.96;102326.75;4880067;29;20957;-91
2022/01/28 10:28:40;;;;;;;5.10;2.27;;;;;;;13.10;83.20;102336.53;4871126;29;20533;-91
2022/01/28 10:31:16;;;;;;;6.73;1.70;;;;;;;13.14;82.32;102335.16;4899912;29;20463;-90
2022/01/28 10:33:50;;;;;;;9.73;3.50;;;;;;;13.25;80.31;102339.50;4885562;29;20452;-88
2022/01/28 10:36:24;;;;;;;7.50;2.00;;;;;;;13.32;79.96;102336.91;4870817;29;20474;-89
2022/01/28 10:39:03;;;;;;;5.60;2.17;;;;;;;13.46;79.54;102344.47;4901089;29;20455;-89
2022/01/28 10:41:51;;;;;;;11.33;2.47;;;;;;;13.56;79.26;102356.09;4900291;29;20518;-90
2022/01/28 10:44:19;;;;;;;13.60;2.67;;;;;;;13.68;79.43;102346.44;4871102;29;20537;-89
2022/01/28 10:47:28;;;;;;;10.83;1.97;;;;;;;13.86;79.17;102339.88;4870729;29;20453;-90
2022/01/28 10:49:56;;;;;;;8.17;2.23;;;;;;;13.98;78.19;102341.25;4853170;29;20552;-88
2022/01/28 10:52:39;;;;;;;6.57;2.57;;;;;;;14.12;78.21;102346.84;4850783;29;20442;-90
2022/01/28 10:55:15;;;;;;;4.13;1.63;;;;;;;14.19;76.72;102347.00;4870920;29;20455;-89
2022/01/28 10:57:43;;;;;;;10.37;2.30;;;;;;;14.29;75.25;102346.78;4861379;29;20502;-89
2022/01/28 11:00:18;;;;;;;9.20;1.83;;;;;;;14.32;73.53;102340.91;4866841;29;20981;-89
2022/01/28 11:02:57;;;;;;;8.23;1.93;;;;;;;14.44;73.08;102351.34;4862950;29;20466;-88
2022/01/28 11:05:34;;;;;;;7.83;1.90;;;;;;;14.46;71.83;102338.28;4863753;29;20454;-89
2022/01/28 11:08:03;;;;;;;9.83;1.83;;;;;;;14.56;72.54;102332.56;4861475;29;20517;-89
2022/01/28 11:10:32;;;;;;;9.77;1.90;;;;;;;14.75;73.05;102347.75;4845597;29;20527;-89
2022/01/28 11:13:01;;;;;;;13.37;2.07;;;;;;;14.87;72.17;102349.03;4877320;29;20517;-89
2022/01/28 11:15:35;;;;;;;8.07;1.93;;;;;;;15.01;71.96;102342.75;4873037;29;20536;-88
2022/01/28 11:18:05;;;;;;;23.67;2.17;;;;;;;15.10;70.72;102346.28;4874507;29;20566;-90
2022/01/28 11:20:45;;;;;;;3.80;2.10;;;;;;;15.21;70.94;102338.44;4864780;29;20576;-89
2022/01/28 11:23:24;;;;;;;90.27;9.50;;;;;;;15.29;70.42;102317.38;4872041;29;20439;-89
2022/01/28 11:56:36;;;;;;;8.80;2.37;;;;;;;16.58;66.44;102299.28;4864825;29;20443;-94
2022/01/28 12:25:42;;;;;;;7.67;1.73;;;;;;;17.47;60.17;102271.25;4868750;29;20449;-86
2022/01/28 12:28:14;;;;;;;9.00;1.63;;;;;;;17.56;60.14;102264.47;4880710;29;20557;-86
2022/01/28 12:30:50;;;;;;;3.97;1.57;;;;;;;17.65;60.40;102266.06;4867399;29;20446;-87
2022/01/28 12:33:23;;;;;;;4.63;1.40;;;;;;;17.81;60.33;102262.13;4849731;29;20438;-86
2022/01/28 12:35:56;;;;;;;7.67;1.93;;;;;;;17.90;59.94;102258.97;4859654;29;20478;-85
2022/01/28 12:38:28;;;;;;;11.77;2.27;;;;;;;17.91;58.41;102246.84;4859168;29;20455;-86
2022/01/28 12:41:07;;;;;;;9.23;1.70;;;;;;;17.97;57.72;102261.78;4846928;29;20440;-85
2022/01/28 12:43:40;;;;;;;14.87;2.23;;;;;;;18.04;58.25;102257.13;4834682;29;20528;-85
2022/01/28 12:46:10;;;;;;;9.53;1.83;;;;;;;18.10;57.78;102255.44;4872091;29;20537;-86
2022/01/28 12:49:15;;;;;;;19.07;2.10;;;;;;;18.10;57.14;102250.75;4865895;29;20483;-85
2022/01/28 12:51:46;;;;;;;14.37;2.37;;;;;;;18.16;57.21;102261.00;4876642;29;20455;-85
2022/01/28 12:54:17;;;;;;;8.47;2.60;;;;;;;18.16;57.56;102251.84;4856178;29;20446;-86
2022/01/28 12:56:50;;;;;;;22.67;2.27;;;;;;;18.16;57.55;102243.53;4888519;29;20442;-87
2022/01/28 12:59:23;;;;;;;7.47;2.47;;;;;;;18.27;57.46;102246.59;4874336;29;20460;-86
2022/01/28 13:01:56;;;;;;;13.30;2.10;;;;;;;18.34;57.45;102235.50;4894790;29;20887;-86
2022/01/28 13:04:37;;;;;;;29.50;4.10;;;;;;;18.27;58.69;102251.25;4882318;29;20455;-86
2022/01/28 13:09:58;;;;;;;15.20;2.73;;;;;;;18.30;61.09;102235.06;4877938;29;20494;-87
2022/01/28 13:12:29;;;;;;;14.23;2.17;;;;;;;18.35;60.74;102228.91;4860906;29;20445;-88
2022/01/28 13:15:09;;;;;;;45.50;4.60;;;;;;;18.42;61.65;102227.03;4863224;29;20470;-87
2022/01/28 13:17:38;;;;;;;26.00;3.37;;;;;;;18.52;62.05;102221.91;4845901;29;20450;-87
2022/01/28 13:20:12;;;;;;;14.10;2.10;;;;;;;18.53;62.32;102217.25;4863762;29;20451;-87
2022/01/28 13:22:41;;;;;;;14.70;2.03;;;;;;;18.71;61.80;102213.88;4879563;29;20446;-87
2022/01/28 13:25:19;;;;;;;10.70;2.10;;;;;;;18.81;62.20;102217.09;4843522;29;20455;-87
2022/01/28 13:27:50;;;;;;;12.43;2.20;;;;;;;18.84;61.79;102203.69;4789229;29;20461;-87
2022/01/28 13:30:21;;;;;;;14.57;3.43;;;;;;;18.95;61.63;102202.19;4789411;29;20930;-87
2022/01/28 13:32:50;;;;;;;35.90;4.27;;;;;;;18.97;61.47;102183.41;4804455;29;20461;-87
2022/01/28 13:35:22;;;;;;;15.27;3.00;;;;;;;19.06;61.30;102176.56;4760141;29;20458;-87
2022/01/28 13:37:59;;;;;;;30.20;4.27;;;;;;;19.12;61.02;102172.94;4789233;29;20466;-86
2022/01/28 13:40:32;;;;;;;13.57;2.83;;;;;;;19.03;59.63;102173.41;4774930;29;21029;-87
2022/01/28 13:43:05;;;;;;;15.60;2.17;;;;;;;19.04;58.31;102178.75;4788642;29;20912;-87
2022/01/28 13:45:53;;;;;;;24.43;2.70;;;;;;;19.04;57.46;102164.03;4817217;29;20502;-87
2022/01/28 13:48:37;;;;;;;8.67;2.50;;;;;;;19.09;57.65;102156.75;4859416;29;20458;-93
2022/01/28 13:51:15;;;;;;;10.57;1.93;;;;;;;19.21;57.92;102155.03;4866206;29;20471;-87
2022/01/28 13:56:31;;;;;;;16.47;2.53;;;;;;;19.46;57.33;102151.53;4878000;29;20966;-88
2022/01/28 13:59:26;;;;;;;11.83;2.00;;;;;;;19.52;56.48;102159.03;4852081;29;20442;-87
2022/01/28 14:01:59;;;;;;;12.33;2.73;;;;;;;19.53;55.98;102164.34;4863952;29;20447;-86
2022/01/28 14:04:35;;;;;;;10.47;2.07;;;;;;;19.60;56.30;102158.81;4875395;29;20446;-87
2022/01/28 14:07:30;;;;;;;13.87;2.27;;;;;;;19.56;55.28;102160.31;4890711;29;20459;-87
2022/01/28 14:10:15;;;;;;;10.73;1.90;;;;;;;19.56;56.13;102150.06;4863900;29;20492;-87
2022/01/28 14:12:49;;;;;;;11.00;3.60;;;;;;;19.62;57.27;102151.13;4884676;29;20964;-88
2022/01/28 14:15:49;;;;;;;10.37;2.10;;;;;;;19.64;56.77;102143.41;4878322;29;20478;-87
2022/01/28 14:18:07;;;;;;;14.30;3.33;;;;;;;19.69;56.31;102151.91;4861458;29;20841;-87
2022/01/28 14:20:36;;;;;;;14.63;2.30;;;;;;;19.67;55.63;102149.38;4847267;29;20825;-87
2022/01/28 14:23:04;;;;;;;12.27;1.90;;;;;;;19.64;55.07;102149.78;4859438;29;20570;-88
2022/01/28 14:25:32;;;;;;;10.80;2.83;;;;;;;19.58;55.14;102144.28;4877349;29;20458;-88
2022/01/28 14:28:23;;;;;;;11.10;2.07;;;;;;;19.51;56.01;102137.91;4855042;29;20977;-87
2022/01/28 14:31:06;;;;;;;21.43;3.50;;;;;;;19.67;57.19;102138.25;4868812;29;20523;-87
2022/01/28 14:33:34;;;;;;;13.97;2.57;;;;;;;19.70;57.98;102125.88;4859503;29;20447;-87
2022/01/28 14:36:02;;;;;;;8.77;2.37;;;;;;;19.82;57.74;102140.75;4859355;29;20447;-88
2022/01/28 14:38:29;;;;;;;18.50;2.80;;;;;;;19.89;57.93;102141.56;4859066;29;20456;-87
2022/01/28 14:40:59;;;;;;;13.43;2.97;;;;;;;19.91;58.21;102133.88;4859621;29;20963;-87
2022/01/28 14:43:27;;;;;;;11.83;2.20;;;;;;;19.95;58.99;102132.38;4867820;29;20467;-87
2022/01/28 14:45:55;;;;;;;7.33;2.40;;;;;;;19.94;59.38;102133.44;4843542;29;20566;-87
2022/01/28 14:48:27;;;;;;;13.97;2.93;;;;;;;19.96;59.05;102136.84;4844919;29;20534;-88
2022/01/28 14:50:56;;;;;;;15.27;2.57;;;;;;;19.87;58.23;102132.63;4862975;29;20530;-87
2022/01/28 14:53:26;;;;;;;27.83;2.93;;;;;;;19.85;58.55;102137.53;4867390;29;20498;-88
2022/01/28 14:55:54;;;;;;;22.17;2.33;;;;;;;19.77;57.63;102150.84;4847755;29;20450;-87
2022/01/28 14:58:21;;;;;;;33.20;3.50;;;;;;;19.65;57.42;102142.31;4875380;29;20471;-88
2022/01/28 15:00:49;;;;;;;14.90;2.40;;;;;;;19.60;57.86;102153.25;4862597;29;20506;-87
2022/01/28 15:03:17;;;;;;;10.67;1.87;;;;;;;19.53;58.80;102147.72;4876575;29;20439;-87
2022/01/28 15:05:45;;;;;;;28.83;4.47;;;;;;;19.48;60.47;102147.47;4863315;29;20443;-87
2022/01/28 15:08:23;;;;;;;30.97;3.20;;;;;;;19.36;61.12;102140.91;4847249;29;20518;-88
2022/01/28 15:10:54;;;;;;;39.90;5.03;;;;;;;19.26;61.03;102141.34;4872620;29;20493;-89
2022/01/28 15:13:24;;;;;;;19.70;3.27;;;;;;;19.17;61.69;102139.06;4869806;29;20451;-87
2022/01/28 15:15:59;;;;;;;12.50;2.73;;;;;;;19.10;62.61;102144.59;4850374;29;20470;-87
2022/01/28 15:18:26;;;;;;;20.53;3.57;;;;;;;19.03;63.43;102142.94;4864331;29;20788;-87
2022/01/28 15:20:56;;;;;;;34.03;3.67;;;;;;;19.06;63.81;102137.78;4847772;29;20435;-87
2022/01/28 15:23:24;;;;;;;14.47;2.60;;;;;;;19.08;64.32;102148.66;4832319;29;20504;-87
2022/01/28 15:25:52;;;;;;;12.67;2.63;;;;;;;19.09;64.74;102144.81;4832281;29;20503;-87
2022/01/28 15:28:23;;;;;;;8.70;2.40;;;;;;;19.11;65.28;102142.69;4848056;29;20451;-87
2022/01/28 15:36:22;;;;;;;10.53;2.40;;;;;;;18.85;65.57;102129.72;4857336;29;20452;-87
2022/01/28 15:38:50;;;;;;;8.70;2.47;;;;;;;18.89;65.86;102139.28;4863350;29;20459;-88
2022/01/28 15:41:17;;;;;;;13.80;3.03;;;;;;;18.83;66.49;102134.63;4880901;29;20446;-88
2022/01/28 15:43:45;;;;;;;13.30;2.60;;;;;;;18.82;66.28;102127.38;4846040;29;20517;-87
2022/01/28 15:46:13;;;;;;;9.83;1.93;;;;;;;18.78;65.89;102104.81;4852533;29;20518;-87